Time;durP1;ratioP1;P1;durP2;ratioP2;P2;SDS_P1;SDS_P2;PMS_P1;PMS_P2;Temp;Humidity;BMP_temperature;BMP_pressure;BME280_temperature;BME280_humidity;BME280_pressure;Samples;Min_cycle;Max_cycle;Signal;HPM_P1;HPM_P2
2022/04/14 00:00:02;;;;;;;0.57;0.57;;;15.70;99.90;;;-141.50;100.00;62695.63;5020299;28;20633;-70
2022/04/14 00:02:29;;;;;;;0.40;0.40;;;15.70;99.90;;;-141.50;100.00;62695.63;4980460;28;20713;-71
2022/04/14 00:04:56;;;;;;;0.30;0.30;;;15.70;99.90;;;-141.50;100.00;62695.63;4996173;28;20965;-69
2022/04/14 00:07:23;;;;;;;0.50;0.50;;;15.50;99.90;;;-141.50;100.00;62695.63;4990976;28;20655;-69
2022/04/14 00:09:50;;;;;;;0.30;0.30;;;15.50;99.90;;;-141.50;100.00;62695.63;4994114;28;20633;-69
2022/04/14 00:12:17;;;;;;;0.30;0.30;;;15.50;99.90;;;-141.50;100.00;62695.63;5003007;28;20680;-69
2022/04/14 00:14:44;;;;;;;0.87;0.87;;;15.50;99.90;;;-141.50;100.00;62695.63;4994339;28;20638;-69
2022/04/14 00:17:12;;;;;;;0.30;0.30;;;15.50;99.90;;;-141.50;100.00;62695.63;5026910;28;20668;-69
2022/04/14 00:19:41;;;;;;;0.30;0.30;;;15.50;99.90;;;-141.50;100.00;62695.63;5005605;28;20628;-70
2022/04/14 00:22:08;;;;;;;0.30;0.30;;;15.50;99.90;;;-141.50;100.00;62695.63;5022746;28;20724;-70
2022/04/14 00:24:35;;;;;;;0.30;0.30;;;15.40;99.90;;;-141.50;100.00;62695.63;5010642;28;20617;-70
2022/04/14 00:27:02;;;;;;;0.30;0.30;;;15.40;99.90;;;-141.50;100.00;62695.63;4999734;28;20649;-69
2022/04/14 00:29:31;;;;;;;0.30;0.30;;;15.30;99.90;;;-141.50;100.00;62695.63;5011413;28;20656;-69
2022/04/14 00:31:58;;;;;;;0.30;0.30;;;15.30;99.90;;;-141.50;100.00;62695.63;4990272;28;20699;-70
2022/04/14 00:34:24;;;;;;;1.30;1.20;;;15.40;99.90;;;-141.50;100.00;62695.63;5028265;28;20601;-69
2022/04/14 00:36:51;;;;;;;1.60;0.70;;;15.30;99.90;;;-141.50;100.00;62695.63;4988137;28;20661;-70
2022/04/14 00:39:18;;;;;;;0.30;0.30;;;15.40;99.90;;;-141.50;100.00;62695.63;4994131;28;20625;-69
2022/04/14 00:41:45;;;;;;;0.30;0.30;;;15.40;99.90;;;-141.50;100.00;62695.63;5017592;28;20688;-69
2022/04/14 00:44:12;;;;;;;0.30;0.30;;;15.30;99.90;;;-141.50;100.00;62695.63;5005974;28;20653;-69
2022/04/14 00:46:39;;;;;;;0.30;0.30;;;15.30;99.90;;;-141.50;100.00;62695.63;4975456;28;20692;-69
2022/04/14 00:49:06;;;;;;;0.30;0.30;;;15.40;99.90;;;-141.50;100.00;62695.63;5012061;28;20656;-69
2022/04/14 00:51:35;;;;;;;0.40;0.40;;;15.30;99.90;;;-141.50;100.00;62695.63;5009776;28;20662;-69
2022/04/14 00:54:02;;;;;;;0.30;0.30;;;15.40;99.90;;;-141.50;100.00;62695.63;5004992;28;20648;-70
2022/04/14 00:56:29;;;;;;;0.30;0.30;;;15.30;99.90;;;-141.50;100.00;62695.63;5009615;28;20676;-69
2022/04/14 00:58:56;;;;;;;0.30;0.30;;;15.30;99.90;;;-141.50;100.00;62695.63;5012387;28;20648;-70
2022/04/14 01:01:23;;;;;;;0.30;0.30;;;15.30;99.90;;;-141.50;100.00;62695.63;4979667;28;20725;-69
2022/04/14 01:03:51;;;;;;;0.60;0.60;;;15.30;99.90;;;-141.50;100.00;62695.63;4977778;28;20645;-71
2022/04/14 01:06:20;;;;;;;0.40;0.40;;;15.30;99.90;;;-141.50;100.00;62695.63;5012001;28;20668;-69
2022/04/14 01:09:16;;;;;;;0.30;0.30;;;15.30;99.90;;;-141.50;100.00;62695.63;4995105;28;21058;-69
2022/04/14 01:11:36;;;;;;;0.30;0.30;;;15.20;99.90;;;-141.50;100.00;62695.63;4994495;28;21232;-72
2022/04/14 01:14:03;;;;;;;0.30;0.30;;;15.20;99.90;;;-141.50;100.00;62695.63;4993824;28;20716;-69
2022/04/14 01:16:30;;;;;;;0.30;0.30;;;15.20;99.90;;;-141.50;100.00;62695.63;5023150;28;20672;-70
2022/04/14 01:18:57;;;;;;;0.30;0.30;;;15.20;99.90;;;-141.50;100.00;62695.63;5011867;28;20633;-69
2022/04/14 01:21:33;;;;;;;0.30;0.30;;;15.20;99.90;;;-141.50;100.00;62695.63;4994822;28;20633;-69
2022/04/14 01:24:02;;;;;;;0.30;0.30;;;15.20;99.90;;;-141.50;100.00;62695.63;5012034;28;21476;-67
2022/04/14 01:26:28;;;;;;;0.30;0.30;;;15.20;99.90;;;-141.50;100.00;62695.63;5012191;28;20667;-69
2022/04/14 01:28:56;;;;;;;0.30;0.30;;;15.30;99.90;;;-141.50;100.00;62695.63;5005898;28;20613;-69
2022/04/14 01:31:23;;;;;;;0.30;0.30;;;15.20;99.90;;;-141.50;100.00;62695.63;4995700;28;20656;-70
2022/04/14 01:33:50;;;;;;;0.30;0.30;;;15.20;99.90;;;-141.50;100.00;62695.63;5032881;28;21205;-69
2022/04/14 01:36:19;;;;;;;0.30;0.30;;;15.30;99.90;;;-141.50;100.00;62695.63;5003721;28;20683;-69
2022/04/14 01:38:46;;;;;;;0.30;0.30;;;15.30;99.90;;;-141.50;100.00;62695.63;5030520;28;21258;-69
2022/04/14 01:41:13;;;;;;;0.40;0.30;;;15.20;99.90;;;-141.50;100.00;62695.63;5022324;28;20637;-69
2022/04/14 01:43:40;;;;;;;0.30;0.30;;;15.20;99.90;;;-141.50;100.00;62695.63;5010847;28;20719;-69
2022/04/14 01:46:08;;;;;;;0.30;0.30;;;15.20;99.90;;;-141.50;100.00;62695.63;5018414;28;20736;-69
2022/04/14 01:48:38;;;;;;;0.30;0.30;;;15.20;99.90;;;-141.50;100.00;62695.63;5018507;28;21084;-69
2022/04/14 01:51:05;;;;;;;0.60;0.60;;;15.20;99.90;;;-141.50;100.00;62695.63;5006264;28;21010;-71
2022/04/14 01:53:32;;;;;;;0.40;0.40;;;15.20;99.90;;;-141.50;100.00;62695.63;4997970;28;20660;-69
2022/04/14 01:55:59;;;;;;;0.30;0.30;;;15.10;99.90;;;-141.50;100.00;62695.63;5029296;28;20640;-69
2022/04/14 01:58:26;;;;;;;0.30;0.30;;;15.10;99.90;;;-141.50;100.00;62695.63;5001650;28;20629;-69
2022/04/14 02:00:53;;;;;;;0.30;0.30;;;15.10;99.90;;;-141.50;100.00;62695.63;5012992;28;20720;-70
2022/04/14 02:03:20;;;;;;;0.50;0.50;;;15.10;99.90;;;-141.50;100.00;62695.63;5004377;28;21291;-69
2022/04/14 02:05:47;;;;;;;0.30;0.30;;;15.00;99.90;;;-141.50;100.00;62695.63;4995276;28;20639;-69
2022/04/14 02:08:14;;;;;;;0.30;0.30;;;14.90;99.90;;;-141.50;100.00;62695.63;4999018;28;21092;-69
2022/04/14 02:10:41;;;;;;;0.30;0.30;;;14.90;99.90;;;-141.50;100.00;62695.63;5020721;28;20649;-71
2022/04/14 02:13:08;;;;;;;0.30;0.30;;;15.00;99.90;;;-141.50;100.00;62695.63;5009698;28;20673;-69
2022/04/14 02:15:35;;;;;;;1.90;1.80;;;14.90;99.90;;;-141.50;100.00;62695.63;4988299;28;20656;-69
2022/04/14 02:18:02;;;;;;;0.30;0.30;;;14.80;99.90;;;-141.50;100.00;62695.63;5023292;28;20660;-69
2022/04/14 02:20:29;;;;;;;0.90;0.90;;;14.80;99.90;;;-141.50;100.00;62695.63;4985010;28;20608;-68
2022/04/14 02:22:56;;;;;;;1.20;1.10;;;14.80;99.90;;;-141.50;100.00;62695.63;5030650;28;20608;-69
2022/04/14 02:25:23;;;;;;;0.30;0.30;;;14.80;99.90;;;-141.50;100.00;62695.63;5002778;28;20787;-69
2022/04/14 02:27:50;;;;;;;0.30;0.30;;;14.80;99.90;;;-141.50;100.00;62695.63;5017511;28;20659;-68
2022/04/14 02:30:18;;;;;;;0.30;0.30;;;14.80;99.90;;;-141.50;100.00;62695.63;4999423;28;20641;-69
2022/04/14 02:32:45;;;;;;;0.30;0.30;;;14.80;99.90;;;-141.50;100.00;62695.63;5031383;28;20593;-68
2022/04/14 02:35:12;;;;;;;0.30;0.30;;;14.80;99.90;;;-141.50;100.00;62695.63;5002294;28;20716;-69
2022/04/14 02:37:38;;;;;;;0.30;0.30;;;14.80;99.90;;;-141.50;100.00;62695.63;4993676;28;21493;-69
2022/04/14 02:40:07;;;;;;;0.30;0.27;;;14.70;99.90;;;-141.50;100.00;62695.63;5010089;28;20729;-68
2022/04/14 02:42:33;;;;;;;0.30;0.30;;;14.60;99.90;;;-141.50;100.00;62695.63;5020062;28;20649;-68
2022/04/14 02:45:00;;;;;;;2.87;2.60;;;14.60;99.90;;;-141.50;100.00;62695.63;4993181;28;20700;-69
2022/04/14 02:47:27;;;;;;;0.40;0.30;;;14.60;99.90;;;-141.50;100.00;62695.63;5001678;28;20659;-68
2022/04/14 02:49:54;;;;;;;0.30;0.30;;;14.50;99.90;;;-141.50;100.00;62695.63;4981051;28;21207;-67
2022/04/14 02:52:21;;;;;;;0.30;0.30;;;14.50;99.90;;;-141.50;100.00;62695.63;5012369;28;21004;-68
2022/04/14 02:54:48;;;;;;;0.30;0.30;;;14.60;99.90;;;-141.50;100.00;62695.63;5001024;28;20636;-69
2022/04/14 02:57:15;;;;;;;0.30;0.30;;;14.60;99.90;;;-141.50;100.00;62695.63;4998668;28;20645;-68
2022/04/14 02:59:42;;;;;;;0.30;0.30;;;14.50;99.90;;;-141.50;100.00;62695.63;4989056;28;20630;-68
2022/04/14 03:02:09;;;;;;;0.40;0.40;;;14.50;99.90;;;-141.50;100.00;62695.63;5004353;28;20615;-69
2022/04/14 03:04:36;;;;;;;0.40;0.40;;;14.50;99.90;;;-141.50;100.00;62695.63;5006582;28;20636;-68
2022/04/14 03:07:03;;;;;;;0.30;0.30;;;14.50;99.90;;;-141.50;100.00;62695.63;5009753;28;20662;-68
2022/04/14 03:09:30;;;;;;;0.57;0.57;;;14.50;99.90;;;-141.50;100.00;62695.63;5026231;28;20700;-71
2022/04/14 03:11:57;;;;;;;1.13;1.13;;;14.50;99.90;;;-141.50;100.00;62695.63;5005789;28;20637;-67
2022/04/14 03:14:24;;;;;;;0.30;0.30;;;14.50;99.90;;;-141.50;100.00;62695.63;4994748;28;20748;-68
2022/04/14 03:16:51;;;;;;;0.80;0.80;;;14.50;99.90;;;-141.50;100.00;62695.63;4983764;28;21239;-68
2022/04/14 03:19:18;;;;;;;0.30;0.30;;;14.40;99.90;;;-141.50;100.00;62695.63;4991249;28;20720;-69
2022/04/14 03:21:46;;;;;;;0.30;0.30;;;14.40;99.90;;;-141.50;100.00;62695.63;5010065;28;20612;-73
2022/04/14 03:24:13;;;;;;;0.30;0.30;;;14.40;99.90;;;-141.50;100.00;62695.63;4992333;28;20665;-68
2022/04/14 03:26:40;;;;;;;0.30;0.30;;;14.40;99.90;;;-141.50;100.00;62695.63;5000411;28;21261;-68
2022/04/14 03:29:07;;;;;;;17.27;3.60;;;14.40;99.90;;;-141.50;100.00;62695.63;4995154;28;21048;-69
2022/04/14 03:31:34;;;;;;;0.30;0.30;;;14.30;99.90;;;-141.50;100.00;62695.63;4993728;28;20636;-68
2022/04/14 03:34:01;;;;;;;0.30;0.27;;;14.30;99.90;;;-141.50;100.00;62695.63;5008072;28;20637;-68
2022/04/14 03:36:28;;;;;;;0.30;0.30;;;14.30;99.90;;;-141.50;100.00;62695.63;5011163;28;20660;-68
2022/04/14 03:38:55;;;;;;;0.30;0.30;;;14.30;99.90;;;-141.50;100.00;62695.63;5007023;28;21020;-68
2022/04/14 03:41:22;;;;;;;0.30;0.30;;;14.30;99.90;;;-141.50;100.00;62695.63;4996564;28;20633;-69
2022/04/14 03:43:49;;;;;;;0.30;0.30;;;14.30;99.90;;;-141.50;100.00;62695.63;5020085;28;20740;-68
2022/04/14 03:46:18;;;;;;;0.30;0.30;;;14.20;99.90;;;-141.50;100.00;62695.63;4996924;28;20652;-69
2022/04/14 03:48:46;;;;;;;0.30;0.30;;;14.20;99.90;;;-141.50;100.00;62695.63;5005096;28;20658;-68
2022/04/14 03:51:15;;;;;;;0.30;0.30;;;14.10;99.90;;;-141.50;100.00;62695.63;4976468;28;20707;-68
2022/04/14 03:53:43;;;;;;;0.30;0.30;;;14.10;99.90;;;-141.50;100.00;62695.63;5015836;28;20710;-68
2022/04/14 03:56:11;;;;;;;0.77;0.77;;;14.10;99.90;;;-141.50;100.00;62695.63;5007285;28;20683;-68
2022/04/14 03:58:38;;;;;;;0.40;0.40;;;14.10;99.90;;;-141.50;100.00;62695.63;4997462;28;20632;-69
2022/04/14 04:01:05;;;;;;;0.73;0.53;;;14.00;99.90;;;-141.50;100.00;62695.63;5009299;28;20703;-69
2022/04/14 04:03:34;;;;;;;0.40;0.40;;;14.00;99.90;;;-141.50;100.00;62695.63;5005957;28;20753;-68
2022/04/14 04:06:01;;;;;;;1.00;0.90;;;13.90;99.90;;;-141.50;100.00;62695.63;4991701;28;20683;-69
2022/04/14 04:08:27;;;;;;;1.10;1.03;;;13.90;99.90;;;-141.50;100.00;62695.63;5008593;28;21241;-69
2022/04/14 04:10:54;;;;;;;0.40;0.40;;;13.90;99.90;;;-141.50;100.00;62695.63;5021111;28;20620;-69
2022/04/14 04:13:21;;;;;;;0.30;0.23;;;13.80;99.90;;;-141.50;100.00;62695.63;4994628;28;21262;-68
2022/04/14 04:15:48;;;;;;;0.30;0.30;;;13.80;99.90;;;-141.50;100.00;62695.63;5010665;28;20633;-71
2022/04/14 04:18:15;;;;;;;0.30;0.30;;;13.80;99.90;;;-141.50;100.00;62695.63;5009293;28;21194;-68
2022/04/14 04:20:42;;;;;;;0.30;0.30;;;13.80;99.90;;;-141.50;100.00;62695.63;4997947;28;20637;-69
2022/04/14 04:23:09;;;;;;;0.30;0.30;;;13.80;99.90;;;-141.50;100.00;62695.63;5011538;28;20648;-69
2022/04/14 04:25:36;;;;;;;0.30;0.30;;;13.80;99.90;;;-141.50;100.00;62695.63;4979856;28;20633;-70
2022/04/14 04:28:04;;;;;;;0.30;0.30;;;13.90;99.90;;;-141.50;100.00;62695.63;5008590;28;21024;-68
2022/04/14 04:30:31;;;;;;;0.30;0.30;;;13.80;99.90;;;-141.50;100.00;62695.63;4988444;28;20653;-69
2022/04/14 04:32:58;;;;;;;1.63;0.70;;;13.80;99.90;;;-141.50;100.00;62695.63;5016491;28;20649;-69
2022/04/14 04:35:26;;;;;;;0.30;0.30;;;13.80;99.90;;;-141.50;100.00;62695.63;5020462;28;20668;-68
2022/04/14 04:37:53;;;;;;;0.30;0.30;;;13.80;99.90;;;-141.50;100.00;62695.63;5015770;28;20657;-67
2022/04/14 04:40:20;;;;;;;0.30;0.30;;;13.70;99.90;;;-141.50;100.00;62695.63;5027518;28;20644;-68
2022/04/14 04:42:47;;;;;;;0.30;0.30;;;13.70;99.90;;;-141.50;100.00;62695.63;5015397;28;21263;-70
2022/04/14 04:45:14;;;;;;;0.30;0.30;;;13.70;99.90;;;-141.50;100.00;62695.63;5011415;28;20972;-68
2022/04/14 04:47:41;;;;;;;0.30;0.30;;;13.70;99.90;;;-141.50;100.00;62695.63;4999178;28;20656;-69
2022/04/14 04:50:08;;;;;;;0.30;0.30;;;13.80;99.90;;;-141.50;100.00;62695.63;5012623;28;20610;-69
2022/04/14 04:52:35;;;;;;;0.30;0.30;;;13.80;99.90;;;-141.50;100.00;62695.63;5011943;28;20633;-68
2022/04/14 04:55:03;;;;;;;0.30;0.30;;;13.80;99.90;;;-141.50;100.00;62695.63;4978692;28;21187;-66
2022/04/14 04:57:30;;;;;;;0.40;0.40;;;13.90;99.90;;;-141.50;100.00;62695.63;4989282;28;20672;-68
2022/04/14 04:59:57;;;;;;;1.43;1.33;;;13.90;99.90;;;-141.50;100.00;62695.63;4996383;28;20724;-70
2022/04/14 05:02:24;;;;;;;0.30;0.30;;;13.90;99.90;;;-141.50;100.00;62695.63;5011127;28;20660;-68
2022/04/14 05:04:51;;;;;;;0.30;0.30;;;14.00;99.90;;;-141.50;100.00;62695.63;4979121;28;20641;-68
2022/04/14 05:07:18;;;;;;;0.30;0.30;;;14.00;99.90;;;-141.50;100.00;62695.63;4983606;28;20753;-68
2022/04/14 05:09:44;;;;;;;0.30;0.30;;;14.10;99.90;;;-141.50;100.00;62695.63;4996478;28;20637;-68
2022/04/14 05:12:11;;;;;;;0.30;0.30;;;14.20;99.90;;;-141.50;100.00;62695.63;5013029;28;21247;-69
2022/04/14 05:14:38;;;;;;;0.40;0.40;;;14.30;99.90;;;-141.50;100.00;62695.63;4987142;28;20697;-69
2022/04/14 05:17:06;;;;;;;0.30;0.30;;;14.40;99.90;;;-141.50;100.00;62695.63;4989214;28;20675;-69
2022/04/14 05:19:32;;;;;;;0.30;0.30;;;14.50;99.90;;;-141.50;100.00;62695.63;5003385;28;21034;-68
2022/04/14 05:22:01;;;;;;;0.30;0.30;;;14.60;99.90;;;-141.50;100.00;62695.63;5020234;28;20637;-69
2022/04/14 05:24:31;;;;;;;0.50;0.50;;;14.60;99.90;;;-141.50;100.00;62695.63;4999564;28;20660;-69
2022/04/14 05:26:59;;;;;;;0.80;0.60;;;14.70;99.90;;;-141.50;100.00;62695.63;5013775;28;20652;-69
2022/04/14 05:29:26;;;;;;;0.30;0.30;;;14.70;99.90;;;-141.50;100.00;62695.63;5016720;28;20637;-69
2022/04/14 05:31:53;;;;;;;0.30;0.30;;;14.80;99.90;;;-141.50;100.00;62695.63;5005249;28;20604;-68
2022/04/14 05:34:19;;;;;;;0.30;0.30;;;14.90;99.90;;;-141.50;100.00;62695.63;4994495;28;20636;-69
2022/04/14 05:36:46;;;;;;;0.30;0.30;;;14.90;99.90;;;-141.50;100.00;62695.63;5025062;28;20751;-69
2022/04/14 05:39:13;;;;;;;0.40;0.40;;;15.00;99.90;;;-141.50;100.00;62695.63;5004826;28;20637;-70
2022/04/14 05:41:40;;;;;;;0.30;0.30;;;15.00;99.90;;;-141.50;100.00;62695.63;5024642;28;20710;-68
2022/04/14 05:44:07;;;;;;;0.30;0.30;;;15.10;99.90;;;-141.50;100.00;62695.63;5011927;28;20661;-68
2022/04/14 05:46:34;;;;;;;0.30;0.30;;;15.10;99.90;;;-141.50;100.00;62695.63;5007972;28;20755;-68
2022/04/14 05:49:02;;;;;;;0.30;0.30;;;15.20;99.90;;;-141.50;100.00;62695.63;5004923;28;20715;-69
2022/04/14 05:51:29;;;;;;;0.30;0.30;;;15.20;99.90;;;-141.50;100.00;62695.63;5031981;28;20946;-69
2022/04/14 05:53:56;;;;;;;0.30;0.30;;;15.30;99.90;;;-141.50;100.00;62695.63;5011893;28;20645;-69
2022/04/14 05:56:23;;;;;;;0.37;0.37;;;15.30;99.90;;;-141.50;100.00;62695.63;5012206;28;20648;-68
2022/04/14 05:58:49;;;;;;;0.30;0.30;;;15.40;99.90;;;-141.50;100.00;62695.63;5010413;28;20655;-69
2022/04/14 06:01:17;;;;;;;0.30;0.30;;;15.60;99.90;;;-141.50;100.00;62695.63;4992575;28;20622;-69
2022/04/14 06:03:44;;;;;;;1.03;1.03;;;15.80;99.90;;;-141.50;100.00;62695.63;5023501;28;20733;-69
2022/04/14 06:06:13;;;;;;;0.30;0.30;;;16.00;99.90;;;-141.50;100.00;62695.63;4990285;28;20656;-69
2022/04/14 06:08:40;;;;;;;0.50;0.50;;;16.10;99.90;;;-141.50;100.00;62695.63;4979459;28;21174;-69
2022/04/14 06:11:09;;;;;;;0.30;0.30;;;16.40;99.90;;;-141.50;100.00;62695.63;5028614;28;20731;-69
2022/04/14 06:13:36;;;;;;;0.30;0.30;;;16.90;99.90;;;-141.50;100.00;62695.63;5031553;28;20675;-69
2022/04/14 06:16:04;;;;;;;0.40;0.40;;;17.30;99.90;;;-141.50;100.00;62695.63;5018747;28;20645;-69
2022/04/14 06:18:31;;;;;;;0.33;0.33;;;17.70;99.90;;;-141.50;100.00;62695.63;4994259;23;20692;-69
2022/04/14 06:20:58;;;;;;;0.57;0.57;;;18.10;99.90;;;-141.50;100.00;62695.63;5027862;28;20695;-69
2022/04/14 06:23:25;;;;;;;0.30;0.30;;;18.60;99.90;;;-141.50;100.00;62695.63;5032039;28;20651;-69
2022/04/14 06:25:52;;;;;;;0.30;0.30;;;19.40;99.90;;;-141.50;100.00;62695.63;5030330;28;21111;-69
2022/04/14 06:28:19;;;;;;;0.30;0.30;;;19.90;99.90;;;-141.50;100.00;62695.63;5008742;28;20740;-69
2022/04/14 06:30:46;;;;;;;0.30;0.30;;;20.00;99.90;;;-141.50;100.00;62695.63;5024662;28;20632;-69
2022/04/14 06:33:15;;;;;;;0.73;0.73;;;20.20;99.90;;;-141.50;100.00;62695.63;5006311;28;21838;-70
2022/04/14 06:35:43;;;;;;;0.30;0.30;;;20.30;99.90;;;-141.50;100.00;62695.63;5010937;28;21370;-70
2022/04/14 06:38:10;;;;;;;0.30;0.30;;;20.70;99.90;;;-141.50;100.00;62695.63;5005067;28;21231;-69
2022/04/14 06:40:40;;;;;;;0.30;0.30;;;20.70;99.90;;;-141.50;100.00;62695.63;5015606;28;20640;-69
2022/04/14 06:43:07;;;;;;;0.30;0.30;;;20.20;99.90;;;-141.50;100.00;62695.63;4993402;28;20618;-69
2022/04/14 06:45:34;;;;;;;2.63;2.53;;;19.90;99.90;;;-141.50;100.00;62695.63;5013237;28;20637;-71
2022/04/14 06:48:01;;;;;;;0.30;0.30;;;20.00;99.90;;;-141.50;100.00;62695.63;5018313;28;20747;-70
2022/04/14 06:50:28;;;;;;;0.30;0.30;;;20.20;99.90;;;-141.50;100.00;62695.63;5022625;28;20633;-71
2022/04/14 06:52:55;;;;;;;0.30;0.30;;;20.90;99.90;;;-141.50;100.00;62695.63;5031364;28;20718;-69
2022/04/14 06:55:22;;;;;;;11.90;0.87;;;21.40;99.90;;;-141.50;100.00;62695.63;5005795;28;20628;-68
2022/04/14 06:57:50;;;;;;;0.30;0.30;;;21.30;99.90;;;-141.50;100.00;62695.63;5004619;28;20752;-69
2022/04/14 07:00:18;;;;;;;0.30;0.30;;;21.30;99.90;;;-141.50;100.00;62695.63;5019091;28;20648;-72
2022/04/14 07:02:50;;;;;;;0.43;0.43;;;21.30;99.90;;;-141.50;100.00;62695.63;5021233;28;20658;-72
2022/04/14 07:05:17;;;;;;;0.30;0.30;;;20.70;99.90;;;-141.50;100.00;62695.63;5012726;28;20707;-69
2022/04/14 07:07:45;;;;;;;0.30;0.30;;;20.50;99.90;;;-141.50;100.00;62695.63;4997163;28;20657;-69
2022/04/14 07:10:13;;;;;;;0.30;0.30;;;20.50;99.90;;;-141.50;100.00;62695.63;4997921;28;20643;-69
2022/04/14 07:12:42;;;;;;;0.30;0.30;;;20.00;99.90;;;-141.50;100.00;62695.63;5019818;28;20633;-71
2022/04/14 07:15:10;;;;;;;0.30;0.30;;;19.70;99.90;;;-141.50;100.00;62695.63;4995484;28;21250;-68
2022/04/14 07:17:37;;;;;;;2.53;2.33;;;19.10;99.90;;;-141.50;100.00;62695.63;5003888;28;20730;-69
2022/04/14 07:20:09;;;;;;;0.30;0.30;;;18.80;99.90;;;-141.50;100.00;62695.63;5005922;28;20625;-69
2022/04/14 07:22:49;;;;;;;0.30;0.30;;;18.50;99.90;;;-141.50;100.00;62695.63;5020305;28;20721;-66
2022/04/14 07:25:23;;;;;;;0.30;0.30;;;18.30;99.90;;;-141.50;100.00;62695.63;5014603;28;20672;-69
2022/04/14 07:27:51;;;;;;;1.87;1.77;;;18.20;99.90;;;-141.50;100.00;62695.63;4994774;28;20636;-70
2022/04/14 07:30:18;;;;;;;0.30;0.30;;;18.00;99.90;;;-141.50;100.00;62695.63;5008364;28;20624;-69
2022/04/14 07:32:45;;;;;;;0.30;0.30;;;17.90;99.90;;;-141.50;100.00;62695.63;5030341;28;20616;-69
2022/04/14 07:35:13;;;;;;;0.30;0.30;;;17.80;99.90;;;-141.50;100.00;62695.63;5012057;28;20644;-71
2022/04/14 07:37:40;;;;;;;0.40;0.40;;;17.80;99.90;;;-141.50;100.00;62695.63;5011992;28;21308;-69
2022/04/14 07:40:11;;;;;;;0.30;0.30;;;17.70;99.90;;;-141.50;100.00;62695.63;5024612;28;20695;-71
2022/04/14 07:42:44;;;;;;;0.30;0.30;;;17.70;99.90;;;-141.50;100.00;62695.63;5002611;28;20636;-71
2022/04/14 07:45:13;;;;;;;0.40;0.40;;;17.50;99.90;;;-141.50;100.00;62695.63;5012365;28;21001;-72
2022/04/14 07:47:42;;;;;;;0.50;0.50;;;17.70;99.90;;;-141.50;100.00;62695.63;5010017;28;20808;-70
2022/04/14 07:50:15;;;;;;;0.30;0.30;;;17.80;99.90;;;-141.50;100.00;62695.63;5023427;28;20625;-70
2022/04/14 07:53:00;;;;;;;0.30;0.30;;;17.60;99.90;;;-141.50;100.00;62695.63;4995089;28;20645;-69
2022/04/14 07:55:30;;;;;;;0.40;0.40;;;17.70;99.90;;;-141.50;100.00;62695.63;5014754;28;20631;-71
2022/04/14 07:58:06;;;;;;;0.30;0.30;;;17.70;99.90;;;-141.50;100.00;62695.63;5016101;28;20657;-72
2022/04/14 08:00:39;;;;;;;0.30;0.30;;;17.50;99.90;;;-141.50;100.00;62695.63;5013833;28;21217;-69
2022/04/14 08:03:07;;;;;;;0.30;0.30;;;17.60;99.90;;;-141.50;100.00;62695.63;4990872;28;20772;-72
2022/04/14 08:05:38;;;;;;;0.30;0.30;;;17.70;99.90;;;-141.50;100.00;62695.63;4988377;28;20764;-71
2022/04/14 08:08:12;;;;;;;0.30;0.30;;;17.50;99.90;;;-141.50;100.00;62695.63;5001698;28;20662;-71
2022/04/14 08:10:41;;;;;;;0.40;0.40;;;17.40;99.90;;;-141.50;100.00;62695.63;5001476;28;20640;-72
2022/04/14 08:13:09;;;;;;;1.90;1.43;;;17.30;99.90;;;-141.50;100.00;62695.63;4995759;28;20636;-71
2022/04/14 08:15:36;;;;;;;0.60;0.60;;;17.30;99.90;;;-141.50;100.00;62695.63;5020503;28;20728;-73
2022/04/14 08:18:06;;;;;;;0.30;0.30;;;17.20;99.90;;;-141.50;100.00;62695.63;5015336;28;20720;-71
2022/04/14 08:20:34;;;;;;;0.30;0.30;;;17.20;99.90;;;-141.50;100.00;62695.63;5022759;28;21053;-68
2022/04/14 08:23:03;;;;;;;0.30;0.30;;;17.20;99.90;;;-141.50;100.00;62695.63;5007652;28;20695;-73
2022/04/14 08:25:34;;;;;;;0.30;0.30;;;17.20;99.90;;;-141.50;100.00;62695.63;5007520;28;20670;-71
2022/04/14 08:28:03;;;;;;;0.30;0.30;;;17.20;99.90;;;-141.50;100.00;62695.63;4998014;28;21271;-71
2022/04/14 08:30:33;;;;;;;0.30;0.30;;;17.40;99.90;;;-141.50;100.00;62695.63;5012457;28;20620;-69
2022/04/14 08:33:13;;;;;;;0.30;0.30;;;17.40;99.90;;;-141.50;100.00;62695.63;5019366;28;20720;-68
2022/04/14 08:35:40;;;;;;;0.33;0.33;;;17.40;99.90;;;-141.50;100.00;62695.63;5006217;28;20597;-68
2022/04/14 08:38:09;;;;;;;0.97;0.63;;;17.40;99.90;;;-141.50;100.00;62695.63;4997773;28;20656;-70
2022/04/14 08:40:41;;;;;;;0.30;0.30;;;17.40;99.90;;;-141.50;100.00;62695.63;5031063;28;20666;-70
2022/04/14 08:43:34;;;;;;;0.30;0.30;;;17.40;99.90;;;-141.50;100.00;62695.63;5000110;28;20633;-73
2022/04/14 08:46:03;;;;;;;0.30;0.30;;;17.50;99.90;;;-141.50;100.00;62695.63;5009092;28;20716;-71
2022/04/14 08:48:30;;;;;;;0.30;0.30;;;17.40;99.90;;;-141.50;100.00;62695.63;5004431;28;20732;-68
2022/04/14 08:50:57;;;;;;;0.30;0.30;;;17.60;99.90;;;-141.50;100.00;62695.63;4997852;28;20615;-70
2022/04/14 08:53:27;;;;;;;0.30;0.30;;;17.70;99.90;;;-141.50;100.00;62695.63;5001633;28;21186;-70
2022/04/14 08:55:54;;;;;;;0.30;0.30;;;17.90;99.90;;;-141.50;100.00;62695.63;5008812;28;20608;-72
2022/04/14 08:58:26;;;;;;;1.10;0.93;;;17.90;99.90;;;-141.50;100.00;62695.63;5006757;28;20660;-71
2022/04/14 09:00:56;;;;;;;0.30;0.30;;;18.10;99.90;;;-141.50;100.00;62695.63;5011370;28;21251;-71
2022/04/14 09:03:43;;;;;;;0.30;0.30;;;18.30;99.90;;;-141.50;100.00;62695.63;5013582;28;20634;-71
2022/04/14 09:06:11;;;;;;;0.30;0.30;;;18.30;99.90;;;-141.50;100.00;62695.63;4984566;28;20711;-68
2022/04/14 09:08:38;;;;;;;0.30;0.30;;;18.60;99.90;;;-141.50;100.00;62695.63;5011502;28;20675;-68
2022/04/14 09:11:08;;;;;;;0.30;0.30;;;19.20;99.90;;;-141.50;100.00;62695.63;5022051;28;20672;-68
2022/04/14 09:13:38;;;;;;;0.30;0.30;;;20.00;99.90;;;-141.50;100.00;62695.63;4998317;28;20609;-68
2022/04/14 09:16:05;;;;;;;0.30;0.30;;;20.50;99.90;;;-141.50;100.00;62695.63;5024798;28;20621;-68
2022/04/14 09:18:33;;;;;;;0.30;0.30;;;21.30;99.90;;;-141.50;100.00;62695.63;5024319;28;20686;-71
2022/04/14 09:21:06;;;;;;;0.50;0.50;;;22.50;99.90;;;-141.50;100.00;62695.63;5024343;28;20724;-69
2022/04/14 09:23:35;;;;;;;0.30;0.30;;;24.20;96.40;;;-141.50;100.00;62695.63;5003807;28;21047;-70
2022/04/14 09:26:14;;;;;;;0.40;0.40;;;25.50;91.80;;;-141.50;100.00;62695.63;4997441;28;21352;-70
2022/04/14 09:29:05;;;;;;;0.30;0.30;;;26.00;88.40;;;-141.50;100.00;62695.63;5021361;28;20695;-68
2022/04/14 09:31:49;;;;;;;0.80;0.80;;;26.60;82.50;;;-141.50;100.00;62695.63;5022923;28;21186;-68
2022/04/14 09:34:19;;;;;;;0.30;0.30;;;27.30;78.70;;;-141.50;100.00;62695.63;5010767;28;21084;-68
2022/04/14 09:37:08;;;;;;;0.40;0.40;;;27.70;75.40;;;-141.50;100.00;62695.63;5008629;28;20688;-69
2022/04/14 09:40:08;;;;;;;0.37;0.30;;;29.60;69.70;;;-141.50;100.00;62695.63;5015374;28;20988;-68
2022/04/14 09:42:43;;;;;;;0.30;0.30;;;31.20;62.00;;;-141.50;100.00;62695.63;5013705;28;21090;-68
2022/04/14 09:45:25;;;;;;;0.43;0.40;;;32.00;58.90;;;-141.50;100.00;62695.63;5011341;28;21025;-69
2022/04/14 09:48:12;;;;;;;0.40;0.30;;;33.10;55.10;;;-141.50;100.00;62695.63;5016615;28;20660;-71
2022/04/14 09:50:43;;;;;;;0.30;0.30;;;33.90;52.90;;;-141.50;100.00;62695.63;4996158;28;20625;-71
2022/04/14 09:53:12;;;;;;;0.40;0.30;;;32.60;53.20;;;-141.50;100.00;62695.63;5014105;28;20649;-71
2022/04/14 09:55:57;;;;;;;0.30;0.30;;;33.50;52.10;;;-141.50;100.00;62695.63;4994998;28;21001;-69
2022/04/14 09:58:26;;;;;;;0.47;0.47;;;33.40;50.90;;;-141.50;100.00;62695.63;4995311;28;21123;-71
2022/04/14 10:00:55;;;;;;;0.30;0.30;;;31.60;52.60;;;-141.50;100.00;62695.63;4995154;28;20624;-71
2022/04/14 10:03:32;;;;;;;0.30;0.30;;;31.60;53.30;;;-141.50;100.00;62695.63;4994095;28;21107;-71
2022/04/14 10:06:05;;;;;;;0.40;0.40;;;31.50;52.80;;;-141.50;100.00;62695.63;5011806;28;20731;-71